Merritt Island, FL (32953)

6:33 PM EDT on July 28, 2015 (GMT -0400)
Carlton Groves | | Change Station
CLOSE
Current Station
Personal Weather Station
Location: Merritt Island, FL
Elevation: 33 ft
Nearby Weather Stations

Elev 33 ft 28.39 °N, 80.71 °W | Updated 25 seconds ago

Mostly Cloudy
Mostly Cloudy
79.7 °F
Feels Like 85 °F
N
3.8
Wind Variable Wind from SW
Gusts 7.6 mph

Today
High -- | Low -- °F
--% Chance of Precip.
Yesterday
High -- | Low -- °F
Precip. -- in
6:42 AM 8:15 PM
Waxing Gibbous, 92% visible
Pressure 29.93 in
Visibility 10.0 miles
Clouds Few 1900 ft
Scattered Clouds 6000 ft
Heat Index 85 °F
Dew Point 76 °F
Humidity 89%
Rainfall 0.05 in
Snow Depth Not available.
UV 3 out of 12
Pollen .60 out of 12
Air Quality Not available.
Flu Activity Not available.
METAR KXMR 282158Z AUTO 26008KT 10SM FEW019 SCT060 28/23 A2992 RMK AO2 LTG DSNT SE SLP135 T02780233 $

More Conditions Fewer Conditions

Pressure 29.93 in
Visibility 10.0 miles
Clouds Few 1900 ft
Scattered Clouds 6000 ft
Heat Index 85 °F
Dew Point 76 °F
Humidity 89%
Rainfall 0.05 in
Snow Depth Not available.
UV 3 out of 12
Pollen .60 out of 12
Air Quality Not available.
Flu Activity Not available.
METAR KXMR 282158Z AUTO 26008KT 10SM FEW019 SCT060 28/23 A2992 RMK AO2 LTG DSNT SE SLP135 T02780233 $

More Conditions Fewer Conditions

Nowcast | as of 3:31 PM EDT on July 28, 2015

Through late afternoon scattered showers and a few storms will move quickly northeast across central Florida. Eventually the rainfall will cross the intracoastal and nearshore Atlantic waters of Volusia County and the space coast. Brief heavy rain along with wind gusts of 30 to 35 mph will be possible. A few storms will be possible through late afternoon...producing rain amounts of a quarter to half an inch along with occasional lightning. Additional details...including graphics are available online at: http://www.Srh.NOAA.Gov/mlb/blog.Php

×

10-Day Weather Forecast

×

Almanac

Astronomy

Jul. 28, 2015 Rise Set
Actual Time
Civil Twilight
Nautical Twilight
Astronomical Twilight
Moon
Length of Visible Light
Length of Day
Tomorrow will be .
, % of the Moon is Illuminated

Today's Extremes

State Highs State Lows

Community

WunderPhotos

Upload Photos

1,841,963 photos uploaded!

WunderBlogs® & News

Nearby

Air Quality

  Air Quality AQ Index Pollutant
Not available.

Snow Depth

Station Depth Elevation

Earthquake Activity

City Distance Mag. Time & Date
Minimum magnitude displayed is 2.5.

Coastal Water Temperatures

Place Temperature

Stations

Nearby Weather Stations

Station Location Temp. Windchill Dew Point Humidity Wind Precip. Elev Updated Type